Time;durP1;ratioP1;P1;durP2;ratioP2;P2;SDS_P1;SDS_P2;PMS_P1;PMS_P2;Temp;Humidity;BMP_temperature;BMP_pressure;BME280_temperature;BME280_humidity;BME280_pressure;Samples;Min_cycle;Max_cycle;Signal;HPM_P1;HPM_P2
2022/06/23 00:01:21;;;;;;;10.07;4.15;;;19.50;86.50;;;;;;5062758;28;20067;-70
2022/06/23 00:03:48;;;;;;;8.18;3.55;;;19.50;86.90;;;;;;5061791;28;20265;-69
2022/06/23 00:06:36;;;;;;;8.18;4.05;;;19.40;85.50;;;;;;5063058;28;20029;-69
2022/06/23 00:09:38;;;;;;;8.20;4.22;;;19.30;86.40;;;;;;5062651;28;20040;-69
2022/06/23 00:12:33;;;;;;;9.38;4.25;;;19.30;87.90;;;;;;5063402;28;20339;-69
2022/06/23 00:15:23;;;;;;;5.88;3.53;;;19.20;88.70;;;;;;5062111;28;20052;-69
2022/06/23 00:17:59;;;;;;;9.68;4.43;;;19.20;89.40;;;;;;5044776;28;20084;-69
2022/06/23 00:20:31;;;;;;;11.07;4.13;;;19.20;90.30;;;;;;5063486;28;20296;-69
2022/06/23 00:23:06;;;;;;;4.15;3.50;;;19.10;90.10;;;;;;5067526;28;20025;-69
2022/06/23 00:25:42;;;;;;;5.63;3.58;;;19.00;89.60;;;;;;5067187;28;20037;-69
2022/06/23 00:28:30;;;;;;;9.38;4.15;;;18.90;89.30;;;;;;5066998;28;20088;-69
2022/06/23 00:31:00;;;;;;;8.45;4.13;;;18.90;89.40;;;;;;5065864;28;20021;-70
2022/06/23 00:33:30;;;;;;;6.35;3.65;;;18.80;89.70;;;;;;5064080;28;20235;-69
2022/06/23 00:35:58;;;;;;;6.45;3.70;;;18.80;88.10;;;;;;5048896;28;20219;-69
2022/06/23 00:38:31;;;;;;;6.57;3.38;;;18.70;87.80;;;;;;5066974;28;20028;-69
2022/06/23 00:40:58;;;;;;;10.07;3.58;;;18.50;88.00;;;;;;5066665;28;20020;-69
2022/06/23 00:43:26;;;;;;;8.02;3.38;;;18.50;88.10;;;;;;5049100;28;20029;-70
2022/06/23 00:46:17;;;;;;;7.50;3.63;;;18.50;87.50;;;;;;5066463;28;20181;-69
2022/06/23 00:48:48;;;;;;;10.00;3.58;;;18.50;87.50;;;;;;5065069;28;20036;-70
2022/06/23 00:51:27;;;;;;;6.50;3.20;;;18.50;87.80;;;;;;5065422;28;20065;-70
2022/06/23 00:54:04;;;;;;;4.47;3.20;;;18.50;87.60;;;;;;5066678;28;20036;-69
2022/06/23 00:56:54;;;;;;;7.90;3.17;;;18.40;87.40;;;;;;5066300;28;20032;-68
2022/06/23 00:59:43;;;;;;;5.40;3.10;;;18.40;87.40;;;;;;5065578;28;20013;-69
2022/06/23 01:02:17;;;;;;;5.82;2.95;;;18.50;87.10;;;;;;5066668;28;20068;-68
2022/06/23 01:04:53;;;;;;;7.55;3.00;;;18.50;87.10;;;;;;5065017;28;20303;-69
2022/06/23 01:07:58;;;;;;;6.30;3.08;;;18.50;87.00;;;;;;5065871;28;20284;-69
2022/06/23 01:10:40;;;;;;;6.47;2.83;;;18.50;86.90;;;;;;5065247;28;20021;-69
2022/06/23 01:13:34;;;;;;;6.25;3.40;;;18.50;87.00;;;;;;5066249;28;20279;-69
2022/06/23 01:16:08;;;;;;;4.82;2.85;;;18.50;87.50;;;;;;5065349;28;20028;-68
2022/06/23 01:18:41;;;;;;;5.05;3.17;;;18.40;87.90;;;;;;5066149;28;20311;-69
2022/06/23 01:21:15;;;;;;;5.03;3.30;;;18.30;88.80;;;;;;5065171;28;20307;-69
2022/06/23 01:24:21;;;;;;;6.70;3.85;;;18.20;89.30;;;;;;5065844;28;20021;-69
2022/06/23 01:27:26;;;;;;;7.13;3.17;;;18.10;90.00;;;;;;5065417;28;20032;-69
2022/06/23 01:29:59;;;;;;;6.43;3.90;;;18.00;90.30;;;;;;5064682;28;20036;-69
2022/06/23 01:32:31;;;;;;;6.30;3.58;;;18.00;90.30;;;;;;5062055;28;20075;-69
2022/06/23 01:35:12;;;;;;;4.80;3.70;;;18.00;90.50;;;;;;5064697;28;20024;-68
2022/06/23 01:37:44;;;;;;;9.25;3.40;;;18.00;90.60;;;;;;5064387;28;20062;-68
2022/06/23 01:40:22;;;;;;;5.70;3.33;;;17.90;90.80;;;;;;5047823;28;20139;-68
2022/06/23 01:43:24;;;;;;;6.50;3.72;;;17.80;91.00;;;;;;5045879;28;20194;-68
2022/06/23 01:46:00;;;;;;;3.78;3.28;;;17.80;91.00;;;;;;5045575;28;20025;-68
2022/06/23 01:51:45;;;;;;;7.85;3.55;;;17.70;91.10;;;;;;5051215;28;20035;-71
2022/06/23 01:54:27;;;;;;;8.63;3.83;;;17.70;91.20;;;;;;5064989;28;20033;-69
2022/06/23 01:57:13;;;;;;;5.20;3.28;;;17.70;91.30;;;;;;5065605;28;20021;-69
2022/06/23 02:00:19;;;;;;;6.28;4.00;;;17.80;91.20;;;;;;5065560;28;20021;-69
2022/06/23 02:03:10;;;;;;;7.68;3.65;;;17.70;91.30;;;;;;5064989;28;20036;-69
2022/06/23 02:05:56;;;;;;;4.35;3.85;;;17.50;91.60;;;;;;5050057;28;20024;-69
2022/06/23 02:08:45;;;;;;;6.68;3.60;;;17.40;91.80;;;;;;5064485;28;20029;-68
2022/06/23 02:11:17;;;;;;;7.88;3.63;;;17.40;92.00;;;;;;5050865;28;20189;-69
2022/06/23 02:13:57;;;;;;;4.15;3.20;;;17.30;92.20;;;;;;5047572;28;20091;-70
2022/06/23 02:16:32;;;;;;;5.05;3.70;;;17.30;92.30;;;;;;5065324;28;20025;-70
2022/06/23 02:19:10;;;;;;;8.13;3.72;;;17.20;92.30;;;;;;5065049;28;20200;-70
2022/06/23 02:21:45;;;;;;;6.70;3.47;;;17.30;92.30;;;;;;5065227;28;20032;-70
2022/06/23 02:24:37;;;;;;;7.82;4.30;;;17.30;92.20;;;;;;5064216;28;20016;-69
2022/06/23 02:27:18;;;;;;;8.15;3.72;;;17.30;92.20;;;;;;5050117;28;20247;-69
2022/06/23 02:30:05;;;;;;;10.57;4.15;;;17.30;92.10;;;;;;5065234;28;20220;-69
2022/06/23 02:33:00;;;;;;;10.18;4.13;;;17.30;92.10;;;;;;5064264;28;20087;-69
2022/06/23 02:35:41;;;;;;;12.75;4.47;;;17.40;92.10;;;;;;5064163;28;20025;-69
2022/06/23 02:38:42;;;;;;;9.95;3.55;;;17.30;92.10;;;;;;5063981;28;20025;-69
2022/06/23 02:41:15;;;;;;;10.80;3.65;;;17.30;92.10;;;;;;5047275;28;20028;-70
2022/06/23 02:44:20;;;;;;;7.80;3.75;;;17.30;92.20;;;;;;5063451;28;20036;-70
2022/06/23 02:47:26;;;;;;;7.00;3.60;;;17.20;92.80;;;;;;5052030;28;20017;-70
2022/06/23 02:50:31;;;;;;;5.43;3.90;;;17.20;93.00;;;;;;5063508;28;20035;-68
2022/06/23 02:53:35;;;;;;;7.60;3.83;;;17.10;93.40;;;;;;5063937;28;20056;-69
2022/06/23 02:56:41;;;;;;;13.95;4.75;;;17.10;93.40;;;;;;5063654;28;20215;-69
2022/06/23 02:59:25;;;;;;;12.50;5.32;;;17.00;93.30;;;;;;5063490;28;20071;-70
2022/06/23 03:02:00;;;;;;;9.23;4.05;;;16.90;93.50;;;;;;5063357;28;20197;-69
2022/06/23 03:04:33;;;;;;;12.13;4.50;;;16.90;93.50;;;;;;5063577;28;20036;-69
2022/06/23 03:07:09;;;;;;;7.20;3.88;;;16.80;93.60;;;;;;5064208;28;20334;-69
2022/06/23 03:09:40;;;;;;;11.73;4.45;;;16.80;93.50;;;;;;5063155;28;20047;-69
2022/06/23 03:12:11;;;;;;;10.32;4.20;;;16.90;93.60;;;;;;5064296;28;20032;-69
2022/06/23 03:15:01;;;;;;;5.63;3.72;;;16.90;93.60;;;;;;5063323;28;20040;-69
2022/06/23 03:17:39;;;;;;;6.68;3.60;;;16.90;93.70;;;;;;5063277;28;20028;-69
2022/06/23 03:20:38;;;;;;;7.45;3.85;;;16.80;94.00;;;;;;5062793;28;20028;-69
2022/06/23 03:23:15;;;;;;;4.88;3.70;;;16.80;94.50;;;;;;5063276;28;20021;-69
2022/06/23 03:25:50;;;;;;;6.65;3.67;;;16.80;94.80;;;;;;5063019;28;20386;-70
2022/06/23 03:28:34;;;;;;;7.07;3.70;;;16.70;94.90;;;;;;5063709;28;20021;-69
2022/06/23 03:31:07;;;;;;;8.05;4.35;;;16.60;95.20;;;;;;5062926;28;20016;-70
2022/06/23 03:33:57;;;;;;;7.88;3.65;;;16.60;95.30;;;;;;5062321;28;20090;-70
2022/06/23 03:36:55;;;;;;;4.82;3.42;;;16.50;95.40;;;;;;5064043;28;20028;-69
2022/06/23 03:42:33;;;;;;;6.45;3.80;;;16.40;95.70;;;;;;5049040;28;20028;-69
2022/06/23 03:45:36;;;;;;;7.53;4.10;;;16.40;95.80;;;;;;5063837;28;20036;-69
2022/06/23 03:48:09;;;;;;;7.22;3.70;;;16.30;95.90;;;;;;5062642;28;20067;-70
2022/06/23 03:51:05;;;;;;;10.15;4.03;;;16.30;95.90;;;;;;5045979;28;20017;-69
2022/06/23 03:53:38;;;;;;;8.80;4.20;;;16.30;96.00;;;;;;5063739;28;20048;-70
2022/06/23 03:56:08;;;;;;;4.90;3.95;;;16.20;95.90;;;;;;5062290;28;20025;-69
2022/06/23 03:58:59;;;;;;;5.15;4.45;;;16.20;95.80;;;;;;5062279;28;20025;-68
2022/06/23 04:01:35;;;;;;;5.93;3.83;;;16.20;95.90;;;;;;5049210;28;20070;-69
2022/06/23 04:04:20;;;;;;;8.32;4.10;;;16.10;96.10;;;;;;5063920;28;20017;-69
2022/06/23 04:06:49;;;;;;;9.10;4.32;;;16.10;96.20;;;;;;5063682;28;20306;-69
2022/06/23 04:09:23;;;;;;;9.60;4.15;;;16.10;96.30;;;;;;5062245;28;20032;-69
2022/06/23 04:12:14;;;;;;;11.07;4.30;;;16.20;96.30;;;;;;5063396;28;20036;-69
2022/06/23 04:14:49;;;;;;;5.30;3.67;;;16.20;96.00;;;;;;5062921;28;20088;-69
2022/06/23 04:17:38;;;;;;;10.82;4.88;;;16.30;95.90;;;;;;5063411;28;20021;-70
2022/06/23 04:20:34;;;;;;;9.43;4.15;;;16.20;95.80;;;;;;5062154;28;20367;-69
2022/06/23 04:23:06;;;;;;;20.65;5.25;;;16.20;95.90;;;;;;5062652;28;20067;-69
2022/06/23 04:25:37;;;;;;;;;;;16.10;96.00;;;;;;5046703;28;20055;-69
2022/06/23 04:28:02;;;;;;;36.35;6.25;;;16.00;96.10;;;;;;5062710;28;20230;-69
2022/06/23 04:30:36;;;;;;;22.67;5.43;;;16.00;96.10;;;;;;5063528;28;20017;-69
2022/06/23 04:33:06;;;;;;;17.25;5.78;;;16.00;96.00;;;;;;5062225;28;20367;-69
2022/06/23 04:35:36;;;;;;;16.88;5.13;;;16.10;96.00;;;;;;5060483;28;20044;-69
2022/06/23 04:38:38;;;;;;;12.40;4.50;;;16.20;95.90;;;;;;5063174;28;20029;-69
2022/06/23 04:41:13;;;;;;;10.77;4.35;;;16.40;95.70;;;;;;5045436;28;20092;-69
2022/06/23 04:43:52;;;;;;;7.55;3.90;;;16.60;95.00;;;;;;5061955;28;20092;-69
2022/06/23 04:46:27;;;;;;;11.93;4.18;;;16.80;94.70;;;;;;5062055;28;20063;-68
2022/06/23 04:49:04;;;;;;;4.10;3.70;;;17.00;93.70;;;;;;5044519;28;20052;-68
2022/06/23 04:51:47;;;;;;;11.55;3.80;;;17.20;93.20;;;;;;5062009;28;20028;-69
2022/06/23 04:54:20;;;;;;;12.35;3.63;;;17.30;93.70;;;;;;5063247;28;20033;-70
2022/06/23 04:57:00;;;;;;;10.18;3.78;;;17.60;93.60;;;;;;5063059;28;20017;-69
2022/06/23 04:59:45;;;;;;;7.85;3.95;;;17.80;93.00;;;;;;5062981;28;20020;-69
2022/06/23 05:02:33;;;;;;;5.05;3.67;;;18.00;92.10;;;;;;5063169;28;20028;-69
2022/06/23 05:05:22;;;;;;;4.68;3.45;;;18.10;92.10;;;;;;5063070;28;20013;-70
2022/06/23 05:08:13;;;;;;;7.00;3.53;;;18.30;91.80;;;;;;5050145;28;20041;-69
2022/06/23 05:10:54;;;;;;;7.22;3.53;;;18.40;91.60;;;;;;5065818;28;20051;-69
2022/06/23 05:13:22;;;;;;;;;;;18.40;91.00;;;;;;5066960;28;20024;-70
2022/06/23 05:16:01;;;;;;;4.88;3.10;;;18.50;90.70;;;;;;5066644;28;19901;-69
2022/06/23 05:18:31;;;;;;;5.18;3.00;;;18.40;90.70;;;;;;5064738;28;20062;-70
2022/06/23 05:21:07;;;;;;;5.75;3.50;;;18.40;90.80;;;;;;5065264;28;20050;-69
2022/06/23 05:23:45;;;;;;;8.77;3.65;;;18.40;90.80;;;;;;5065192;28;20102;-70
2022/06/23 05:26:34;;;;;;;8.43;3.72;;;18.30;90.70;;;;;;5065291;28;20091;-69
2022/06/23 05:29:05;;;;;;;4.88;3.40;;;18.20;90.90;;;;;;5050951;28;20029;-69
2022/06/23 05:31:35;;;;;;;7.45;3.80;;;18.00;91.00;;;;;;5066226;28;20024;-69
2022/06/23 05:34:10;;;;;;;6.15;3.65;;;17.70;91.60;;;;;;5066415;28;20173;-68
2022/06/23 05:36:48;;;;;;;6.28;3.70;;;17.50;92.00;;;;;;5064719;28;20084;-70
2022/06/23 05:39:21;;;;;;;5.70;3.35;;;17.40;92.20;;;;;;5064869;28;20028;-69
2022/06/23 05:41:51;;;;;;;10.13;4.05;;;17.40;92.40;;;;;;5065660;28;20054;-70
2022/06/23 05:44:24;;;;;;;9.40;3.67;;;17.40;92.50;;;;;;5065077;28;20243;-69
2022/06/23 05:46:52;;;;;;;5.43;3.50;;;17.40;92.50;;;;;;5065710;28;20019;-70
2022/06/23 05:49:30;;;;;;;7.20;3.90;;;17.60;92.20;;;;;;5065417;28;20048;-69
2022/06/23 05:52:04;;;;;;;10.60;4.38;;;17.70;91.80;;;;;;5065697;28;20312;-69
2022/06/23 05:54:56;;;;;;;15.43;4.32;;;17.80;91.80;;;;;;5065781;28;20092;-69
2022/06/23 05:57:45;;;;;;;8.60;4.47;;;17.90;91.70;;;;;;5047650;28;20120;-70
2022/06/23 06:00:35;;;;;;;7.03;4.72;;;18.00;91.60;;;;;;5064721;28;20048;-70
2022/06/23 06:03:16;;;;;;;7.07;4.43;;;18.10;91.80;;;;;;5050593;28;20040;-69
2022/06/23 06:05:45;;;;;;;9.00;4.53;;;18.30;91.30;;;;;;5065522;28;20049;-69
2022/06/23 06:08:34;;;;;;;8.15;4.75;;;18.40;91.20;;;;;;5064414;28;20029;-70
2022/06/23 06:11:03;;;;;;;11.30;5.07;;;18.50;90.90;;;;;;5064392;28;20024;-69
2022/06/23 06:13:33;;;;;;;6.97;5.00;;;18.70;90.80;;;;;;5063921;28;20028;-70
2022/06/23 06:16:01;;;;;;;10.10;5.05;;;18.80;90.50;;;;;;5063818;28;20024;-69
2022/06/23 06:18:37;;;;;;;12.82;4.82;;;18.90;90.40;;;;;;5063617;28;20494;-69
2022/06/23 06:21:07;;;;;;;9.95;5.20;;;18.90;90.30;;;;;;5064171;28;20025;-69
2022/06/23 06:23:57;;;;;;;7.60;4.75;;;19.00;90.30;;;;;;5064427;28;20036;-69
2022/06/23 06:26:31;;;;;;;12.00;5.57;;;19.10;90.20;;;;;;5063333;28;20025;-70
2022/06/23 06:29:11;;;;;;;9.90;5.22;;;19.10;90.30;;;;;;5063249;28;20032;-69
2022/06/23 06:31:42;;;;;;;9.05;4.82;;;19.20;90.50;;;;;;5046560;28;20021;-70
2022/06/23 06:34:17;;;;;;;13.20;5.20;;;19.30;90.30;;;;;;5064626;28;20029;-70
2022/06/23 06:36:45;;;;;;;10.50;5.47;;;19.30;90.30;;;;;;5063354;28;20327;-70
2022/06/23 06:39:27;;;;;;;6.80;4.70;;;19.30;89.90;;;;;;5063597;28;20331;-70
2022/06/23 06:42:00;;;;;;;10.07;4.70;;;19.40;89.50;;;;;;5064145;28;20204;-69
2022/06/23 06:44:26;;;;;;;12.98;4.85;;;19.40;89.30;;;;;;5063538;28;20024;-70
2022/06/23 06:46:53;;;;;;;13.75;4.63;;;19.60;88.90;;;;;;5064450;28;20104;-70
2022/06/23 06:49:21;;;;;;;12.63;5.18;;;19.60;88.50;;;;;;5062539;28;20035;-70
2022/06/23 06:51:49;;;;;;;9.90;5.20;;;19.70;88.50;;;;;;5064578;28;20043;-71
2022/06/23 06:54:22;;;;;;;8.15;5.13;;;19.70;88.40;;;;;;5064420;28;20098;-71
2022/06/23 06:56:52;;;;;;;8.68;4.50;;;19.70;88.40;;;;;;5063431;28;20039;-70
2022/06/23 06:59:31;;;;;;;10.07;5.07;;;19.80;88.40;;;;;;5062930;28;20303;-71
2022/06/23 07:02:03;;;;;;;8.63;4.80;;;19.80;88.30;;;;;;5059642;28;20258;-71
2022/06/23 07:04:38;;;;;;;8.77;5.18;;;19.90;88.10;;;;;;5063286;28;20300;-71
2022/06/23 07:07:08;;;;;;;9.23;4.50;;;20.00;87.70;;;;;;5046106;28;20100;-71
2022/06/23 07:09:51;;;;;;;9.20;4.65;;;20.10;87.90;;;;;;5062382;28;20254;-70
2022/06/23 07:12:25;;;;;;;6.28;4.25;;;20.20;88.30;;;;;;5070647;28;20024;-71
2022/06/23 07:15:17;;;;;;;6.32;4.15;;;20.20;88.00;;;;;;5047005;28;20025;-71
2022/06/23 07:17:50;;;;;;;7.57;4.13;;;20.20;87.20;;;;;;5061325;28;20036;-70
2022/06/23 07:20:28;;;;;;;10.95;3.40;;;20.30;87.30;;;;;;5060728;28;20208;-71
2022/06/23 07:23:01;;;;;;;6.82;3.10;;;20.50;86.70;;;;;;5062746;28;20127;-71
2022/06/23 07:25:36;;;;;;;9.38;3.50;;;20.60;86.20;;;;;;5062086;28;20028;-70
2022/06/23 07:28:18;;;;;;;6.78;3.58;;;20.70;86.00;;;;;;5059938;28;20391;-71
2022/06/23 07:30:49;;;;;;;8.98;3.45;;;20.80;85.50;;;;;;5058801;28;20036;-70
2022/06/23 07:33:28;;;;;;;8.52;4.53;;;20.70;85.80;;;;;;5059885;28;20078;-71
2022/06/23 07:36:08;;;;;;;11.10;4.10;;;20.80;85.90;;;;;;5055837;28;20035;-72
2022/06/23 07:38:45;;;;;;;12.05;3.70;;;20.90;85.50;;;;;;5058361;28;20024;-71
2022/06/23 07:41:24;;;;;;;9.18;3.47;;;20.90;85.20;;;;;;5061134;28;20099;-70
2022/06/23 07:44:15;;;;;;;12.32;3.78;;;20.90;85.50;;;;;;5041651;28;20029;-72
2022/06/23 07:46:40;;;;;;;5.90;3.50;;;21.10;84.00;;;;;;5056748;28;20351;-71
2022/06/23 07:49:08;;;;;;;8.30;3.55;;;21.40;83.40;;;;;;5043884;28;20336;-71
2022/06/23 07:51:35;;;;;;;14.35;4.28;;;21.70;82.80;;;;;;5060636;28;20082;-72
2022/06/23 07:54:01;;;;;;;5.32;3.55;;;22.20;82.50;;;;;;5061187;28;20067;-74
2022/06/23 07:56:31;;;;;;;6.13;3.53;;;22.60;80.00;;;;;;5060781;28;20071;-72
2022/06/23 07:59:07;;;;;;;7.68;3.65;;;22.90;79.80;;;;;;5060113;28;20025;-72
2022/06/23 08:01:41;;;;;;;6.60;3.00;;;23.10;79.00;;;;;;5054976;28;20025;-72
2022/06/23 08:04:29;;;;;;;10.38;3.78;;;23.20;77.90;;;;;;5059462;28;20025;-71
2022/06/23 08:06:59;;;;;;;6.35;2.92;;;23.40;78.10;;;;;;5047409;28;20047;-70
2022/06/23 08:09:37;;;;;;;8.95;3.20;;;23.40;78.00;;;;;;5060503;28;20025;-72
2022/06/23 08:18:17;;;;;;;9.13;3.22;;;23.20;78.50;;;;;;5050342;28;20246;-71
2022/06/23 08:20:52;;;;;;;5.80;3.28;;;23.00;78.40;;;;;;5063240;28;20231;-70
2022/06/23 08:23:22;;;;;;;6.85;3.38;;;22.90;78.00;;;;;;5062595;28;20017;-73
2022/06/23 08:25:48;;;;;;;6.53;2.47;;;22.80;78.60;;;;;;5061250;28;20025;-72
2022/06/23 08:28:15;;;;;;;6.68;2.05;;;22.70;78.30;;;;;;5060351;28;20045;-73
2022/06/23 08:30:41;;;;;;;7.70;1.98;;;22.60;78.00;;;;;;5060942;28;20025;-71
2022/06/23 08:33:08;;;;;;;2.83;1.90;;;22.70;77.80;;;;;;5043837;28;20046;-70
2022/06/23 08:35:48;;;;;;;6.50;1.73;;;22.80;76.90;;;;;;5059840;28;20332;-71
2022/06/23 08:38:21;;;;;;;8.73;1.83;;;22.70;76.00;;;;;;5039587;28;20040;-70
2022/06/23 08:41:12;;;;;;;3.95;1.75;;;22.80;75.80;;;;;;5060712;28;20045;-72
2022/06/23 08:43:52;;;;;;;;;;;22.80;76.20;;;;;;5064274;28;20036;-73
2022/06/23 08:46:37;;;;;;;2.83;1.33;;;22.90;76.30;;;;;;5064324;28;19912;-73
2022/06/23 08:49:22;;;;;;;3.35;1.20;;;22.90;75.10;;;;;;5046596;28;20304;-73
2022/06/23 08:52:01;;;;;;;3.72;1.42;;;23.00;74.90;;;;;;5049773;28;20028;-72
2022/06/23 08:54:36;;;;;;;1.50;0.95;;;23.10;74.90;;;;;;5065182;28;20029;-71
2022/06/23 08:57:30;;;;;;;3.45;0.90;;;23.20;74.50;;;;;;5047423;28;20346;-70
2022/06/23 09:00:07;;;;;;;5.80;0.93;;;23.20;74.30;;;;;;5051192;28;20029;-71
2022/06/23 09:02:57;;;;;;;2.25;1.00;;;23.20;74.10;;;;;;5047712;28;20029;-70
2022/06/23 09:05:49;;;;;;;5.13;1.27;;;23.30;74.90;;;;;;5063997;28;20028;-71
2022/06/23 09:08:52;;;;;;;2.50;1.15;;;23.60;74.50;;;;;;5063950;28;20021;-71
2022/06/23 09:11:26;;;;;;;2.63;1.15;;;23.80;73.60;;;;;;5064393;28;20040;-71
2022/06/23 09:14:31;;;;;;;1.17;0.60;;;23.90;73.40;;;;;;5063669;28;20084;-73
2022/06/23 09:17:31;;;;;;;1.85;0.60;;;24.00;71.50;;;;;;5053294;28;20024;-71
2022/06/23 09:20:31;;;;;;;2.05;0.90;;;24.10;71.60;;;;;;5051314;28;20084;-71
2022/06/23 09:23:24;;;;;;;1.08;0.50;;;24.40;71.70;;;;;;5050309;28;20107;-73
2022/06/23 09:26:06;;;;;;;1.52;0.60;;;24.50;71.10;;;;;;5065040;28;20039;-71
2022/06/23 09:28:53;;;;;;;0.60;0.50;;;24.70;71.30;;;;;;5063611;28;20031;-73
2022/06/23 09:31:25;;;;;;;3.78;0.70;;;24.90;70.70;;;;;;5050709;28;20024;-71
2022/06/23 09:34:31;;;;;;;2.92;0.80;;;24.80;70.50;;;;;;5064622;28;20024;-77
2022/06/23 09:37:21;;;;;;;3.00;0.80;;;24.80;71.70;;;;;;5052243;28;20066;-74
2022/06/23 09:40:01;;;;;;;1.77;1.08;;;24.70;73.10;;;;;;5061917;28;20027;-73
2022/06/23 09:43:00;;;;;;;1.58;0.90;;;24.70;73.80;;;;;;5064387;28;20028;-74
2022/06/23 09:46:06;;;;;;;6.95;1.17;;;24.50;74.00;;;;;;5072311;28;20029;-71
2022/06/23 09:49:02;;;;;;;3.28;1.17;;;24.60;73.70;;;;;;5036688;28;20108;-72
2022/06/23 09:51:44;;;;;;;1.35;0.82;;;24.70;73.50;;;;;;5058613;28;20032;-74
2022/06/23 09:54:38;;;;;;;4.55;1.52;;;24.80;73.40;;;;;;5064218;28;20032;-71
2022/06/23 09:57:43;;;;;;;2.67;1.50;;;24.60;73.40;;;;;;5051560;28;20204;-74
2022/06/23 10:00:15;;;;;;;3.72;1.20;;;24.20;74.30;;;;;;5064112;28;20082;-72
2022/06/23 10:03:21;;;;;;;2.25;1.10;;;23.90;74.20;;;;;;5065156;28;20025;-73
2022/06/23 10:06:13;;;;;;;3.78;1.70;;;23.80;73.20;;;;;;5063881;28;20092;-73
2022/06/23 10:09:06;;;;;;;2.55;1.10;;;23.70;73.70;;;;;;5063317;28;20224;-69
2022/06/23 10:11:58;;;;;;;2.42;1.20;;;23.80;73.40;;;;;;5063937;28;20051;-71
2022/06/23 10:15:03;;;;;;;11.60;1.50;;;23.90;74.00;;;;;;5064873;28;20037;-73
2022/06/23 10:18:09;;;;;;;4.40;1.20;;;23.80;74.00;;;;;;5063947;28;20275;-72
2022/06/23 10:21:11;;;;;;;3.38;1.00;;;24.00;74.70;;;;;;5038259;28;20098;-73
2022/06/23 10:23:44;;;;;;;;;;;24.00;73.80;;;;;;5043930;28;20021;-71
2022/06/23 10:26:25;;;;;;;4.25;1.30;;;24.30;73.70;;;;;;5060466;28;20188;-72
2022/06/23 10:29:29;;;;;;;4.97;1.30;;;24.40;71.70;;;;;;5056843;28;20037;-72
2022/06/23 10:32:21;;;;;;;4.63;1.52;;;24.50;71.20;;;;;;5063888;28;20027;-71
2022/06/23 10:35:14;;;;;;;4.40;1.58;;;24.50;70.30;;;;;;5066087;28;20024;-71
2022/06/23 10:38:13;;;;;;;2.78;1.52;;;24.50;71.10;;;;;;5061323;28;20028;-72
2022/06/23 10:41:13;;;;;;;1.63;1.25;;;24.60;72.10;;;;;;5061485;28;20025;-72
2022/06/23 10:43:57;;;;;;;5.68;1.60;;;24.50;71.20;;;;;;5046226;28;20359;-74
2022/06/23 10:46:31;;;;;;;8.88;1.52;;;24.60;71.80;;;;;;5062957;28;20015;-75
2022/06/23 10:49:29;;;;;;;1.70;1.00;;;24.80;71.10;;;;;;5063634;28;20053;-72
2022/06/23 10:52:22;;;;;;;4.03;1.20;;;24.90;70.60;;;;;;5048716;28;20021;-74
2022/06/23 10:55:14;;;;;;;1.38;0.80;;;25.20;69.00;;;;;;5061623;28;20029;-74
2022/06/23 10:58:05;;;;;;;2.63;0.98;;;25.10;67.40;;;;;;5062965;28;20037;-71
2022/06/23 11:00:59;;;;;;;1.90;0.70;;;25.20;65.30;;;;;;5061301;28;20025;-72
2022/06/23 11:03:55;;;;;;;2.63;0.88;;;25.20;64.50;;;;;;5062185;28;20022;-74
2022/06/23 11:07:01;;;;;;;3.28;0.70;;;25.10;65.10;;;;;;5061652;28;20082;-74
2022/06/23 11:10:02;;;;;;;1.08;0.73;;;25.20;65.10;;;;;;5051469;28;20037;-73
2022/06/23 11:13:00;;;;;;;1.40;1.00;;;25.30;64.80;;;;;;5062548;28;20028;-74
2022/06/23 11:16:00;;;;;;;1.98;1.00;;;25.50;63.60;;;;;;5062087;28;20254;-76
2022/06/23 11:18:52;;;;;;;2.60;1.08;;;25.60;61.00;;;;;;5062963;28;20056;-74
2022/06/23 11:21:33;;;;;;;3.47;0.95;;;25.50;59.80;;;;;;5062450;28;20020;-74
2022/06/23 11:24:25;;;;;;;3.13;1.00;;;25.30;59.60;;;;;;5063649;28;20025;-75
2022/06/23 11:27:08;;;;;;;2.90;1.25;;;25.10;61.60;;;;;;5049266;28;20092;-75
2022/06/23 11:30:00;;;;;;;5.07;1.27;;;24.90;62.30;;;;;;5062545;28;20028;-76
2022/06/23 11:33:06;;;;;;;4.03;1.00;;;24.80;62.20;;;;;;5061900;28;20020;-74
2022/06/23 11:35:58;;;;;;;4.32;1.15;;;25.20;61.30;;;;;;5028575;28;20064;-76
2022/06/23 11:39:01;;;;;;;4.63;1.25;;;25.70;59.60;;;;;;5025631;28;20063;-75
2022/06/23 11:41:53;;;;;;;3.00;1.10;;;26.20;58.20;;;;;;5029762;28;20040;-74
2022/06/23 11:44:49;;;;;;;2.22;0.93;;;26.30;58.80;;;;;;5061648;28;20025;-74
2022/06/23 11:47:30;;;;;;;4.10;1.10;;;26.20;57.90;;;;;;5062549;28;20060;-76
2022/06/23 11:50:23;;;;;;;3.13;1.13;;;26.30;58.50;;;;;;5046494;28;20029;-76
2022/06/23 11:53:28;;;;;;;1.58;1.05;;;26.00;58.60;;;;;;5049031;28;20059;-75
2022/06/23 11:56:06;;;;;;;5.30;1.40;;;25.90;59.80;;;;;;5050868;28;20045;-76
2022/06/23 11:58:56;;;;;;;4.03;1.20;;;25.90;60.10;;;;;;5029502;28;20207;-76
2022/06/23 12:01:24;;;;;;;5.50;1.60;;;25.90;59.30;;;;;;5062117;28;20057;-70
2022/06/23 12:04:17;;;;;;;4.20;1.75;;;26.00;60.20;;;;;;5062566;28;20051;-72
2022/06/23 12:07:10;;;;;;;6.53;1.98;;;26.20;59.60;;;;;;5061839;28;20017;-73
2022/06/23 12:10:01;;;;;;;6.63;1.60;;;26.50;59.30;;;;;;5060553;28;20044;-73
2022/06/23 12:12:30;;;;;;;4.38;1.23;;;26.50;59.00;;;;;;5061981;28;20040;-72
2022/06/23 12:14:56;;;;;;;4.22;1.35;;;26.50;58.50;;;;;;5063235;28;20065;-73
2022/06/23 12:17:30;;;;;;;3.33;1.45;;;26.80;58.50;;;;;;5065212;28;20041;-74
2022/06/23 12:20:19;;;;;;;8.57;1.90;;;27.00;58.40;;;;;;5065499;28;20021;-77
2022/06/23 12:23:24;;;;;;;4.22;1.42;;;27.40;58.00;;;;;;5066413;28;20025;-78
2022/06/23 12:26:21;;;;;;;6.30;1.90;;;27.90;57.70;;;;;;5052023;28;20025;-73
2022/06/23 12:28:57;;;;;;;24.10;2.67;;;28.00;57.40;;;;;;5065754;28;20033;-75
2022/06/23 12:32:02;;;;;;;8.25;1.73;;;27.70;57.50;;;;;;5066292;28;20047;-75
2022/06/23 12:34:40;;;;;;;4.43;1.50;;;27.60;58.30;;;;;;5065501;28;20120;-74
2022/06/23 12:37:33;;;;;;;3.50;1.27;;;27.80;58.40;;;;;;5064817;28;20036;-73
2022/06/23 12:40:23;;;;;;;5.32;1.35;;;27.50;59.40;;;;;;5035828;28;20017;-75
2022/06/23 12:42:57;;;;;;;7.30;1.60;;;27.50;59.50;;;;;;5031013;28;20185;-75
2022/06/23 12:45:49;;;;;;;5.68;1.40;;;27.70;59.70;;;;;;5045950;28;20194;-75
2022/06/23 12:48:54;;;;;;;2.75;1.30;;;27.80;59.10;;;;;;5048148;28;20044;-77
2022/06/23 12:51:48;;;;;;;6.25;1.88;;;27.60;59.30;;;;;;5051842;28;20033;-78
2022/06/23 12:54:41;;;;;;;3.63;1.30;;;27.60;60.00;;;;;;5065088;28;20342;-73
2022/06/23 12:57:47;;;;;;;7.70;1.58;;;27.60;59.70;;;;;;5051511;28;20048;-70
2022/06/23 13:00:21;;;;;;;10.95;1.63;;;27.30;60.30;;;;;;5040356;28;20214;-72
2022/06/23 13:02:58;;;;;;;7.40;2.15;;;27.20;60.60;;;;;;5066057;28;20126;-73
2022/06/23 13:05:37;;;;;;;11.95;2.50;;;26.70;61.40;;;;;;5064224;28;20025;-71
2022/06/23 13:08:21;;;;;;;4.30;1.30;;;26.40;62.70;;;;;;5065280;28;20029;-71
2022/06/23 13:10:54;;;;;;;4.50;1.73;;;26.20;63.10;;;;;;5065901;28;20033;-73
2022/06/23 13:13:35;;;;;;;8.95;1.95;;;26.00;64.00;;;;;;5065229;28;20062;-71
2022/06/23 13:16:06;;;;;;;12.27;2.53;;;26.00;64.10;;;;;;5066418;28;20231;-73
2022/06/23 13:18:40;;;;;;;5.65;2.03;;;26.20;64.40;;;;;;5065638;28;20028;-76
2022/06/23 13:21:27;;;;;;;9.38;2.00;;;26.40;63.90;;;;;;5065710;28;20025;-73
2022/06/23 13:24:08;;;;;;;6.40;1.92;;;26.00;64.90;;;;;;5047155;28;20043;-73
2022/06/23 13:26:41;;;;;;;7.00;1.70;;;26.20;65.30;;;;;;5064574;28;20039;-73
2022/06/23 13:29:26;;;;;;;6.32;1.65;;;26.50;65.20;;;;;;5063945;28;20418;-75
2022/06/23 13:32:08;;;;;;;12.18;2.47;;;26.70;65.10;;;;;;5064950;28;20353;-76
2022/06/23 13:34:46;;;;;;;10.32;2.45;;;26.80;65.30;;;;;;5063458;28;20040;-73
2022/06/23 13:37:18;;;;;;;7.38;2.65;;;26.90;65.70;;;;;;5064234;28;20028;-74
2022/06/23 13:40:15;;;;;;;4.25;2.22;;;26.80;65.30;;;;;;5063991;28;20032;-73
2022/06/23 13:42:49;;;;;;;3.20;2.03;;;26.40;66.30;;;;;;5048909;28;20291;-74
2022/06/23 13:45:30;;;;;;;11.27;2.45;;;26.60;67.00;;;;;;5063269;28;20025;-72
2022/06/23 13:48:02;;;;;;;;;;;26.60;67.50;;;;;;5060250;28;20260;-74
2022/06/23 13:50:53;;;;;;;5.13;2.00;;;26.40;68.30;;;;;;5062986;28;19955;-75
2022/06/23 13:53:42;;;;;;;7.32;2.88;;;26.60;67.90;;;;;;5061173;28;20043;-73
2022/06/23 13:56:25;;;;;;;5.47;2.83;;;26.60;68.10;;;;;;5061491;28;20028;-74
2022/06/23 13:59:08;;;;;;;6.82;2.38;;;26.70;68.50;;;;;;5054064;28;20097;-76
2022/06/23 14:01:45;;;;;;;6.60;3.10;;;26.90;68.60;;;;;;5063659;28;20062;-75
2022/06/23 14:04:37;;;;;;;4.88;3.20;;;27.10;68.20;;;;;;5064588;28;20224;-74
2022/06/23 14:07:11;;;;;;;11.40;3.50;;;27.20;67.00;;;;;;5064168;28;20027;-75
2022/06/23 14:09:52;;;;;;;7.75;3.30;;;26.90;67.90;;;;;;5063910;28;20089;-71
2022/06/23 14:12:31;;;;;;;5.57;3.00;;;26.60;67.90;;;;;;5064097;28;20024;-72
2022/06/23 14:15:21;;;;;;;5.15;3.40;;;26.80;68.40;;;;;;5064265;28;20021;-72
2022/06/23 14:18:01;;;;;;;7.40;3.53;;;26.40;68.40;;;;;;5062530;28;20307;-72